createdAt,value
2022-12-12T00:01:18.136Z,7.76
2022-12-12T00:03:46.539Z,7.76
2022-12-12T00:06:16.176Z,7.74
2022-12-12T00:08:44.299Z,7.71
2022-12-12T00:11:12.523Z,7.74
2022-12-12T00:13:41.204Z,7.75
2022-12-12T00:16:11.333Z,7.79
2022-12-12T00:18:40.472Z,7.80
2022-12-12T00:21:16.324Z,7.75
2022-12-12T00:23:44.809Z,7.81
2022-12-12T00:26:19.103Z,7.79
2022-12-12T00:28:47.579Z,7.77
2022-12-12T00:31:16.826Z,7.74
2022-12-12T00:33:46.865Z,7.67
2022-12-12T00:36:16.710Z,7.73
2022-12-12T00:38:44.816Z,7.68
2022-12-12T00:41:13.031Z,7.69
2022-12-12T00:43:41.177Z,7.66
2022-12-12T00:46:09.543Z,7.61
2022-12-12T00:48:37.692Z,7.55
2022-12-12T00:51:11.361Z,7.46
2022-12-12T00:53:41.085Z,7.45
2022-12-12T00:56:09.155Z,7.42
2022-12-12T00:58:37.465Z,7.38
2022-12-12T01:01:11.070Z,7.29
2022-12-12T01:03:41.151Z,7.28
2022-12-12T01:06:09.744Z,7.26
2022-12-12T01:08:38.236Z,7.18
2022-12-12T01:11:08.127Z,7.18
2022-12-12T01:13:36.488Z,7.12
2022-12-12T01:16:05.742Z,7.09
2022-12-12T01:18:34.218Z,7.06
2022-12-12T01:21:02.769Z,7.02
2022-12-12T01:23:31.116Z,7.00
2022-12-12T01:26:02.810Z,6.93
2022-12-12T01:28:32.394Z,6.87
2022-12-12T01:31:00.496Z,6.95
2022-12-12T01:33:28.716Z,6.94
2022-12-12T01:35:56.858Z,6.93
2022-12-12T01:38:25.882Z,6.96
2022-12-12T01:40:54.722Z,6.97
2022-12-12T01:43:24.362Z,6.94
2022-12-12T01:46:31.200Z,7.02
2022-12-12T01:49:05.304Z,7.02
2022-12-12T01:51:34.326Z,6.87
2022-12-12T01:54:08.881Z,6.83
2022-12-12T01:56:39.000Z,6.75
2022-12-12T01:59:10.065Z,6.74
2022-12-12T02:01:39.329Z,6.76
2022-12-12T02:04:10.755Z,6.65
2022-12-12T02:06:39.691Z,6.70
2022-12-12T02:09:12.369Z,6.70
2022-12-12T02:11:45.934Z,6.75
2022-12-12T02:14:16.355Z,6.62
2022-12-12T02:17:09.625Z,6.57
2022-12-12T02:20:21.715Z,6.67
2022-12-12T02:23:22.990Z,6.74
2022-12-12T02:26:34.907Z,6.65
2022-12-12T02:29:27.817Z,6.59
2022-12-12T02:32:04.897Z,6.46
2022-12-12T02:34:38.304Z,6.42
2022-12-12T02:37:13.157Z,6.43
2022-12-12T02:39:49.195Z,6.35
2022-12-12T02:42:26.797Z,6.38
2022-12-12T02:45:00.831Z,6.36
2022-12-12T02:47:33.074Z,6.34
2022-12-12T02:50:06.525Z,6.36
2022-12-12T02:52:34.826Z,6.50
2022-12-12T02:55:03.298Z,6.57
2022-12-12T02:57:31.482Z,6.59
2022-12-12T03:00:03.404Z,6.57
2022-12-12T03:03:23.405Z,6.61
2022-12-12T03:06:21.521Z,6.70
2022-12-12T03:09:01.156Z,6.77
2022-12-12T03:11:47.427Z,6.77
2022-12-12T03:14:23.264Z,6.76
2022-12-12T03:17:03.144Z,6.76
2022-12-12T03:19:43.729Z,6.79
2022-12-12T03:22:18.431Z,6.80
2022-12-12T03:24:52.169Z,6.80
2022-12-12T03:27:26.348Z,6.82
2022-12-12T03:29:59.394Z,6.85
2022-12-12T03:32:31.997Z,6.86
2022-12-12T03:35:08.348Z,6.87
2022-12-12T03:37:42.027Z,6.90
2022-12-12T03:40:14.338Z,6.85
2022-12-12T03:42:48.658Z,6.77
2022-12-12T03:45:24.819Z,6.73
2022-12-12T03:47:58.411Z,6.71
2022-12-12T03:50:31.629Z,6.72
2022-12-12T03:53:09.209Z,6.74
2022-12-12T03:55:42.990Z,6.84
2022-12-12T03:58:15.780Z,6.90
2022-12-12T04:00:47.002Z,6.82
2022-12-12T04:03:20.906Z,6.79
2022-12-12T04:06:13.904Z,6.78
2022-12-12T04:09:02.452Z,6.68
2022-12-12T04:11:55.794Z,6.63
2022-12-12T04:14:49.872Z,6.52
2022-12-12T04:17:23.377Z,6.42
2022-12-12T04:20:14.861Z,6.33
2022-12-12T04:23:10.100Z,6.26
2022-12-12T04:26:03.265Z,6.19
2022-12-12T04:28:33.721Z,6.18
2022-12-12T04:31:06.062Z,6.41
2022-12-12T04:33:41.543Z,6.44
2022-12-12T04:36:12.957Z,6.40
2022-12-12T04:38:46.048Z,6.29
2022-12-12T04:41:16.994Z,6.21
2022-12-12T04:43:49.413Z,6.12
2022-12-12T04:46:20.302Z,6.08
2022-12-12T04:48:53.708Z,6.06
2022-12-12T04:51:28.834Z,6.09
2022-12-12T04:54:03.508Z,6.12
2022-12-12T04:56:34.583Z,6.07
2022-12-12T04:59:05.086Z,6.03
2022-12-12T05:01:46.927Z,5.93
2022-12-12T05:04:24.609Z,5.88
2022-12-12T05:06:57.867Z,5.75
2022-12-12T05:09:27.825Z,5.66
2022-12-12T05:11:56.213Z,5.69
2022-12-12T05:14:24.237Z,5.62
2022-12-12T05:16:57.246Z,5.58
2022-12-12T05:19:25.455Z,5.56
2022-12-12T05:21:53.653Z,5.62
2022-12-12T05:24:21.792Z,5.57
2022-12-12T05:26:51.283Z,5.50
2022-12-12T05:29:19.330Z,5.46
2022-12-12T05:31:47.568Z,5.42
2022-12-12T05:34:15.713Z,5.44
2022-12-12T05:36:43.781Z,5.41
2022-12-12T05:39:11.976Z,5.40
2022-12-12T05:41:40.130Z,5.41
2022-12-12T05:44:09.879Z,5.46
2022-12-12T05:46:38.135Z,5.45
2022-12-12T05:49:06.198Z,5.49
2022-12-12T05:51:34.276Z,5.54
2022-12-12T05:54:02.370Z,5.62
2022-12-12T05:56:30.462Z,5.59
2022-12-12T05:58:58.607Z,5.57
2022-12-12T06:01:28.162Z,5.48
2022-12-12T06:03:56.308Z,5.43
2022-12-12T06:06:24.623Z,5.33
2022-12-12T06:08:52.900Z,5.18
2022-12-12T06:11:20.944Z,5.25
2022-12-12T06:13:49.293Z,5.28
2022-12-12T06:16:20.097Z,5.23
2022-12-12T06:18:53.617Z,5.19
2022-12-12T06:21:22.160Z,5.11
2022-12-12T06:23:50.713Z,5.07
2022-12-12T06:26:20.591Z,5.18
2022-12-12T06:28:50.487Z,5.25
2022-12-12T06:31:19.323Z,5.30
2022-12-12T06:33:47.768Z,5.43
2022-12-12T06:36:24.341Z,5.37
2022-12-12T06:38:53.002Z,5.43
2022-12-12T06:41:23.058Z,5.44
2022-12-12T06:43:51.632Z,5.64
2022-12-12T06:46:23.260Z,5.80
2022-12-12T06:48:51.901Z,5.85
2022-12-12T06:51:24.235Z,5.89
2022-12-12T06:53:52.677Z,5.93
2022-12-12T06:56:22.995Z,6.02
2022-12-12T06:58:51.840Z,6.20
2022-12-12T07:01:21.707Z,6.21
2022-12-12T07:03:51.823Z,6.21
2022-12-12T07:06:24.027Z,6.27
2022-12-12T07:08:53.687Z,6.27
2022-12-12T07:11:23.693Z,6.38
2022-12-12T07:13:52.819Z,6.46
2022-12-12T07:16:21.576Z,6.50
2022-12-12T07:18:49.837Z,6.28
2022-12-12T07:21:20.442Z,6.21
2022-12-12T07:23:50.371Z,6.37
2022-12-12T07:26:21.518Z,6.22
2022-12-12T07:28:50.425Z,6.35
2022-12-12T07:31:21.509Z,6.46
2022-12-12T07:33:50.213Z,6.06
2022-12-12T07:36:25.719Z,5.87
2022-12-12T07:38:55.477Z,6.08
2022-12-12T07:41:23.674Z,6.32
2022-12-12T07:43:52.543Z,6.54
2022-12-12T07:46:24.060Z,6.41
2022-12-12T07:48:53.098Z,6.13
2022-12-12T07:51:21.543Z,6.10
2022-12-12T07:53:49.925Z,6.08
2022-12-12T07:56:20.922Z,6.02
2022-12-12T07:58:49.437Z,6.15
2022-12-12T08:01:20.227Z,6.36
2022-12-12T08:03:49.196Z,6.62
2022-12-12T08:06:17.728Z,6.63
2022-12-12T08:08:46.608Z,6.76
2022-12-12T08:11:16.900Z,6.82
2022-12-12T08:13:46.733Z,6.95
2022-12-12T08:16:17.753Z,7.08
2022-12-12T08:18:47.273Z,7.28
2022-12-12T08:21:23.206Z,7.31
2022-12-12T08:23:56.169Z,7.50
2022-12-12T08:26:24.242Z,7.66
2022-12-12T08:28:53.995Z,7.77
2022-12-12T08:31:23.007Z,7.90
2022-12-12T08:33:52.280Z,7.82
2022-12-12T08:36:22.358Z,8.21
2022-12-12T08:38:50.972Z,8.14
2022-12-12T08:41:20.180Z,8.09
2022-12-12T08:43:49.187Z,8.16
2022-12-12T08:46:22.213Z,8.21
2022-12-12T08:48:50.777Z,8.24
2022-12-12T08:51:19.616Z,8.38
2022-12-12T08:53:48.741Z,8.35
2022-12-12T08:56:18.462Z,8.32
2022-12-12T08:58:46.974Z,8.51
2022-12-12T09:01:17.899Z,8.64
2022-12-12T09:03:48.141Z,8.53
2022-12-12T09:06:16.946Z,8.52
2022-12-12T09:08:45.861Z,8.57
2022-12-12T09:11:14.529Z,8.57
2022-12-12T09:13:42.897Z,8.78
2022-12-12T09:16:12.506Z,8.92
2022-12-12T09:18:48.068Z,8.96
2022-12-12T09:21:18.782Z,8.98
2022-12-12T09:23:47.004Z,8.92
2022-12-12T09:26:15.313Z,8.87
2022-12-12T09:28:43.510Z,9.02
2022-12-12T09:31:13.640Z,9.08
2022-12-12T09:33:43.038Z,8.97
2022-12-12T09:36:12.340Z,8.97
2022-12-12T09:38:42.293Z,9.04
2022-12-12T09:41:17.165Z,9.36
2022-12-12T09:43:54.681Z,9.33
2022-12-12T09:46:33.437Z,9.48
2022-12-12T09:49:13.699Z,9.36
2022-12-12T09:51:43.876Z,9.50
2022-12-12T09:54:16.630Z,9.53
2022-12-12T09:56:55.695Z,9.68
2022-12-12T09:59:33.699Z,9.78
2022-12-12T10:02:13.316Z,9.56
2022-12-12T10:04:52.231Z,9.77
2022-12-12T10:07:28.294Z,9.88
2022-12-12T10:10:05.150Z,10.02
2022-12-12T10:12:35.231Z,9.87
2022-12-12T10:15:06.766Z,9.90
2022-12-12T10:17:38.181Z,10.07
2022-12-12T10:20:15.431Z,10.08
2022-12-12T10:22:50.210Z,10.05
2022-12-12T10:25:27.189Z,10.09
2022-12-12T10:27:59.021Z,10.13
2022-12-12T10:30:29.994Z,10.26
2022-12-12T10:33:13.691Z,10.25
2022-12-12T10:35:49.611Z,10.32
2022-12-12T10:38:34.711Z,10.30
2022-12-12T10:41:12.587Z,10.36
2022-12-12T10:43:47.086Z,10.56
2022-12-12T10:46:22.128Z,10.72
2022-12-12T10:48:51.167Z,10.65
2022-12-12T10:51:22.473Z,10.70
2022-12-12T10:53:51.207Z,10.77
2022-12-12T10:56:25.685Z,10.79
2022-12-12T10:58:55.603Z,10.80
2022-12-12T11:02:00.711Z,10.92
2022-12-12T11:04:17.683Z,10.89
2022-12-12T11:06:49.474Z,10.79
2022-12-12T11:09:21.262Z,10.80
2022-12-12T11:12:02.092Z,10.90
2022-12-12T11:14:35.243Z,10.96
2022-12-12T11:17:04.103Z,10.92
2022-12-12T11:19:39.465Z,10.87
2022-12-12T11:22:07.867Z,10.94
2022-12-12T11:24:39.667Z,11.02
2022-12-12T11:27:09.270Z,11.01
2022-12-12T11:29:45.685Z,11.01
2022-12-12T11:32:15.780Z,10.97
2022-12-12T11:34:47.607Z,10.78
2022-12-12T11:37:18.069Z,10.72
2022-12-12T11:39:50.522Z,10.61
2022-12-12T11:42:22.946Z,10.51
2022-12-12T11:45:00.082Z,10.57
2022-12-12T11:47:30.071Z,10.58
2022-12-12T11:50:00.009Z,10.83
2022-12-12T11:52:30.568Z,11.05
2022-12-12T11:54:59.412Z,10.92
2022-12-12T11:57:46.031Z,10.99
2022-12-12T12:00:16.519Z,11.14
2022-12-12T12:03:04.931Z,10.99
2022-12-12T12:05:46.175Z,10.80
2022-12-12T12:08:27.326Z,10.90
2022-12-12T12:11:09.643Z,10.81
2022-12-12T12:13:53.460Z,10.78
2022-12-12T12:16:29.568Z,10.74
2022-12-12T12:19:10.159Z,10.98
2022-12-12T12:21:49.630Z,11.04
2022-12-12T12:24:32.360Z,11.16
2022-12-12T12:27:10.595Z,11.15
2022-12-12T12:30:13.402Z,11.28
2022-12-12T12:32:52.241Z,11.33
2022-12-12T12:35:29.304Z,11.09
2022-12-12T12:38:13.365Z,10.94
2022-12-12T12:41:05.328Z,10.88
2022-12-12T12:43:46.326Z,11.10
2022-12-12T12:46:22.928Z,11.14
2022-12-12T12:48:53.699Z,11.24
2022-12-12T12:51:29.204Z,11.26
2022-12-12T12:54:02.391Z,11.20
2022-12-12T12:56:32.918Z,11.24
2022-12-12T12:59:04.228Z,11.19
2022-12-12T13:01:38.812Z,11.40
2022-12-12T13:04:14.575Z,11.40
2022-12-12T13:06:47.774Z,11.24
2022-12-12T13:09:30.094Z,11.25
2022-12-12T13:12:05.040Z,11.09
2022-12-12T13:14:42.108Z,10.83
2022-12-12T13:17:18.392Z,10.76
2022-12-12T13:19:50.936Z,10.80
2022-12-12T13:22:28.405Z,10.74
2022-12-12T13:25:02.395Z,10.83
2022-12-12T13:27:35.098Z,10.91
2022-12-12T13:30:06.461Z,10.94
2022-12-12T13:33:01.897Z,10.87
2022-12-12T13:35:35.417Z,10.84
2022-12-12T13:38:05.382Z,10.71
2022-12-12T13:40:44.046Z,10.62
2022-12-12T13:43:29.563Z,10.55
2022-12-12T13:45:57.930Z,10.51
2022-12-12T13:48:46.902Z,10.57
2022-12-12T13:51:38.810Z,10.51
2022-12-12T13:54:45.251Z,10.47
2022-12-12T13:57:15.793Z,10.53
2022-12-12T14:00:17.200Z,10.54
2022-12-12T14:02:57.993Z,10.40
2022-12-12T14:05:34.375Z,10.39
2022-12-12T14:08:07.368Z,10.33
2022-12-12T14:10:38.856Z,10.35
2022-12-12T14:13:28.728Z,10.27
2022-12-12T14:16:06.979Z,10.28
2022-12-12T14:18:40.132Z,10.18
2022-12-12T14:21:13.072Z,10.23
2022-12-12T14:23:43.083Z,10.29
2022-12-12T14:26:49.621Z,10.15
2022-12-12T14:29:29.029Z,10.17
2022-12-12T14:32:14.977Z,10.10
2022-12-12T14:34:52.668Z,10.18
2022-12-12T14:37:51.972Z,10.14
2022-12-12T14:40:22.909Z,10.03
2022-12-12T14:43:20.764Z,10.02
2022-12-12T14:45:55.315Z,9.96
2022-12-12T14:48:25.835Z,10.02
2022-12-12T14:51:02.703Z,10.03
2022-12-12T14:53:35.426Z,9.99
2022-12-12T14:56:08.626Z,10.13
2022-12-12T14:58:39.977Z,10.17
2022-12-12T15:01:09.093Z,10.06
2022-12-12T15:03:41.067Z,10.01
2022-12-12T15:06:38.344Z,10.08
2022-12-12T15:09:20.470Z,10.02
2022-12-12T15:11:49.291Z,10.01
2022-12-12T15:14:23.226Z,9.96
2022-12-12T15:16:56.027Z,9.91
2022-12-12T15:19:29.386Z,9.88
2022-12-12T15:21:58.380Z,9.86
2022-12-12T15:24:30.799Z,9.84
2022-12-12T15:27:00.390Z,9.78
2022-12-12T15:29:31.049Z,9.72
2022-12-12T15:32:02.203Z,9.85
2022-12-12T15:34:36.180Z,9.81
2022-12-12T15:37:22.407Z,9.74
2022-12-12T15:40:20.664Z,9.71
2022-12-12T15:42:52.819Z,9.59
2022-12-12T15:45:25.771Z,9.56
2022-12-12T15:47:55.393Z,9.60
2022-12-12T15:50:28.757Z,9.51
2022-12-12T15:53:06.169Z,9.63
2022-12-12T15:55:36.373Z,9.60
2022-12-12T15:58:04.591Z,9.44
2022-12-12T16:00:38.788Z,9.38
2022-12-12T16:03:23.554Z,9.29
2022-12-12T16:06:04.497Z,9.32
2022-12-12T16:08:38.541Z,9.25
2022-12-12T16:11:32.405Z,9.19
2022-12-12T16:14:03.325Z,9.18
2022-12-12T16:16:42.780Z,9.22
2022-12-12T16:19:34.279Z,9.06
2022-12-12T16:22:06.248Z,9.13
2022-12-12T16:24:45.107Z,9.07
2022-12-12T16:27:14.709Z,9.01
2022-12-12T16:29:42.850Z,9.03
2022-12-12T16:32:15.141Z,9.11
2022-12-12T16:34:43.375Z,9.14
2022-12-12T16:37:15.176Z,9.09
2022-12-12T16:39:43.567Z,9.08
2022-12-12T16:42:16.047Z,9.08
2022-12-12T16:44:45.622Z,9.07
2022-12-12T16:47:17.650Z,9.10
2022-12-12T16:49:46.834Z,9.06
2022-12-12T16:52:15.542Z,9.09
2022-12-12T16:54:49.564Z,9.11
2022-12-12T16:57:22.624Z,9.07
2022-12-12T16:59:50.689Z,9.05
2022-12-12T17:02:21.443Z,9.07
2022-12-12T17:04:50.478Z,8.99
2022-12-12T17:07:18.629Z,8.96
2022-12-12T17:09:46.717Z,8.92
2022-12-12T17:12:15.870Z,8.85
2022-12-12T17:14:45.391Z,8.87
2022-12-12T17:17:13.588Z,8.89
2022-12-12T17:19:41.821Z,8.89
2022-12-12T17:22:09.908Z,8.84
2022-12-12T17:24:38.335Z,8.79
2022-12-12T17:27:06.474Z,8.74
2022-12-12T17:29:34.578Z,8.71
2022-12-12T17:32:04.173Z,8.72
2022-12-12T17:34:32.253Z,8.89
2022-12-12T17:37:00.429Z,8.92
2022-12-12T17:39:28.616Z,8.93
2022-12-12T17:41:56.734Z,8.99
2022-12-12T17:44:24.936Z,8.98
2022-12-12T17:46:52.955Z,8.97
2022-12-12T17:49:22.401Z,8.93
2022-12-12T17:51:50.658Z,9.02
2022-12-12T17:54:18.831Z,9.16
2022-12-12T17:56:47.010Z,9.06
2022-12-12T17:59:15.368Z,9.04
2022-12-12T18:01:43.450Z,8.99
2022-12-12T18:04:11.938Z,8.94
2022-12-12T18:06:41.576Z,8.94
2022-12-12T18:09:09.698Z,9.13
2022-12-12T18:11:38.757Z,9.21
2022-12-12T18:14:09.053Z,9.20
2022-12-12T18:16:37.827Z,9.09
2022-12-12T18:19:05.931Z,9.14
2022-12-12T18:21:59.832Z,9.22
2022-12-12T18:24:25.977Z,9.04
2022-12-12T18:26:55.488Z,9.05
2022-12-12T18:29:24.345Z,8.83
2022-12-12T18:31:53.509Z,8.74
2022-12-12T18:34:22.039Z,8.99
2022-12-12T18:36:50.684Z,9.09
2022-12-12T18:39:19.049Z,9.05
2022-12-12T18:41:48.847Z,9.00
2022-12-12T18:44:17.428Z,8.85
2022-12-12T18:46:45.684Z,8.82
2022-12-12T18:49:15.713Z,8.88
2022-12-12T18:51:45.235Z,8.82
2022-12-12T18:54:16.363Z,8.80
2022-12-12T18:56:46.175Z,8.72
2022-12-12T18:59:17.439Z,8.63
2022-12-12T19:01:48.243Z,8.53
2022-12-12T19:04:22.801Z,8.66
2022-12-12T19:06:51.869Z,8.62
2022-12-12T19:09:21.055Z,8.46
2022-12-12T19:11:49.978Z,8.66
2022-12-12T19:14:20.708Z,8.77
2022-12-12T19:16:49.870Z,8.68
2022-12-12T19:19:19.259Z,8.49
2022-12-12T19:21:48.301Z,8.33
2022-12-12T19:24:16.887Z,8.29
2022-12-12T19:26:45.970Z,8.20
2022-12-12T19:29:15.808Z,8.12
2022-12-12T19:31:46.409Z,8.11
2022-12-12T19:34:16.168Z,8.08
2022-12-12T19:36:45.549Z,8.13
2022-12-12T19:39:14.125Z,8.19
2022-12-12T19:41:43.171Z,8.27
2022-12-12T19:44:13.167Z,8.44
2022-12-12T19:47:01.125Z,8.54
2022-12-12T19:49:29.304Z,8.53
2022-12-12T19:51:57.675Z,8.34
2022-12-12T19:54:25.872Z,8.25
2022-12-12T19:56:54.010Z,8.17
2022-12-12T19:59:22.221Z,8.42
2022-12-12T20:01:50.412Z,8.36
2022-12-12T20:04:22.018Z,8.30
2022-12-12T20:06:51.095Z,8.27
2022-12-12T20:09:22.500Z,8.21
2022-12-12T20:11:51.649Z,8.25
2022-12-12T20:14:22.392Z,8.35
2022-12-12T20:16:51.270Z,8.21
2022-12-12T20:19:21.436Z,8.22
2022-12-12T20:22:02.517Z,8.37
2022-12-12T20:24:32.782Z,8.31
2022-12-12T20:27:04.656Z,8.19
2022-12-12T20:29:32.786Z,8.16
2022-12-12T20:32:01.753Z,8.17
2022-12-12T20:34:31.620Z,8.11
2022-12-12T20:36:59.746Z,8.10
2022-12-12T20:39:28.022Z,8.05
2022-12-12T20:41:57.713Z,7.95
2022-12-12T20:44:29.096Z,7.92
2022-12-12T20:46:58.865Z,7.97
2022-12-12T20:49:28.858Z,7.88
2022-12-12T20:51:59.560Z,7.73
2022-12-12T20:54:29.637Z,7.82
2022-12-12T20:56:59.210Z,7.84
2022-12-12T20:59:29.038Z,7.82
2022-12-12T21:01:57.217Z,7.79
2022-12-12T21:04:25.347Z,7.70
2022-12-12T21:06:53.463Z,7.60
2022-12-12T21:09:26.473Z,7.29
2022-12-12T21:11:56.949Z,6.93
2022-12-12T21:14:25.530Z,6.74
2022-12-12T21:16:53.645Z,6.53
2022-12-12T21:19:23.432Z,6.41
2022-12-12T21:21:52.309Z,6.28
2022-12-12T21:24:20.941Z,6.15
2022-12-12T21:26:51.171Z,6.09
2022-12-12T21:29:19.762Z,6.03
2022-12-12T21:31:51.924Z,5.86
2022-12-12T21:34:21.811Z,5.80
2022-12-12T21:36:53.029Z,5.69
2022-12-12T21:39:22.260Z,5.50
2022-12-12T21:41:51.881Z,5.45
2022-12-12T21:44:20.955Z,5.40
2022-12-12T21:46:49.983Z,5.38
2022-12-12T21:49:26.720Z,5.42
2022-12-12T21:51:56.513Z,5.40
2022-12-12T21:54:24.759Z,5.41
2022-12-12T21:56:54.456Z,5.35
2022-12-12T21:59:22.689Z,5.41
2022-12-12T22:01:50.890Z,5.33
2022-12-12T22:04:19.033Z,5.30
2022-12-12T22:06:47.874Z,5.24
2022-12-12T22:09:16.619Z,5.17
2022-12-12T22:11:52.033Z,5.17
2022-12-12T22:14:23.264Z,5.14
2022-12-12T22:16:51.343Z,5.22
2022-12-12T22:19:19.606Z,5.19
2022-12-12T22:21:48.917Z,5.14
2022-12-12T22:24:17.489Z,5.08
2022-12-12T22:26:48.142Z,5.08
2022-12-12T22:29:17.926Z,5.03
2022-12-12T22:31:50.240Z,5.04
2022-12-12T22:34:21.355Z,5.15
2022-12-12T22:36:50.079Z,5.14
2022-12-12T22:39:20.310Z,5.16
2022-12-12T22:41:50.750Z,5.17
2022-12-12T22:44:23.664Z,5.21
2022-12-12T22:46:54.971Z,5.24
2022-12-12T22:49:26.828Z,5.24
2022-12-12T22:51:56.360Z,5.21
2022-12-12T22:54:24.955Z,5.21
2022-12-12T22:56:53.206Z,5.24
2022-12-12T22:59:21.360Z,5.20
2022-12-12T23:01:49.758Z,5.26
2022-12-12T23:04:19.371Z,5.30
2022-12-12T23:06:47.726Z,5.32
2022-12-12T23:09:18.370Z,5.28
2022-12-12T23:11:46.610Z,5.31
2022-12-12T23:14:17.563Z,5.32
2022-12-12T23:16:46.550Z,5.38
2022-12-12T23:19:17.509Z,5.40
2022-12-12T23:21:47.866Z,5.38
2022-12-12T23:24:17.634Z,5.36
2022-12-12T23:26:45.816Z,5.27
2022-12-12T23:29:17.036Z,5.22
2022-12-12T23:31:45.517Z,5.35
2022-12-12T23:34:16.530Z,5.40
2022-12-12T23:36:46.047Z,5.34
2022-12-12T23:39:14.857Z,5.40
2022-12-12T23:41:43.329Z,5.42
2022-12-12T23:44:14.544Z,5.48
2022-12-12T23:46:43.318Z,5.49
2022-12-12T23:49:16.510Z,5.47
2022-12-12T23:51:48.236Z,5.47
2022-12-12T23:54:18.218Z,5.50
2022-12-12T23:56:47.405Z,5.47
2022-12-12T23:59:18.238Z,5.44
